sensor_id;sensor_type;location;lat;lon;timestamp;temperature;humidity
54540;SHT30;40438;52.992;18.604;2023-07-09T00:01:13;19.97;58.32
54540;SHT30;40438;52.992;18.604;2023-07-09T00:03:41;19.87;58.51
54540;SHT30;40438;52.992;18.604;2023-07-09T00:06:07;19.85;58.60
54540;SHT30;40438;52.992;18.604;2023-07-09T00:08:33;19.84;58.83
54540;SHT30;40438;52.992;18.604;2023-07-09T00:10:59;19.77;59.00
54540;SHT30;40438;52.992;18.604;2023-07-09T00:13:26;19.69;59.25
54540;SHT30;40438;52.992;18.604;2023-07-09T00:15:55;19.63;59.72
54540;SHT30;40438;52.992;18.604;2023-07-09T00:18:22;19.60;59.70
54540;SHT30;40438;52.992;18.604;2023-07-09T00:20:49;19.56;59.79
54540;SHT30;40438;52.992;18.604;2023-07-09T00:23:15;19.54;59.85
54540;SHT30;40438;52.992;18.604;2023-07-09T00:25:41;19.49;60.04
54540;SHT30;40438;52.992;18.604;2023-07-09T00:28:11;19.42;60.22
54540;SHT30;40438;52.992;18.604;2023-07-09T00:30:38;19.33;60.46
54540;SHT30;40438;52.992;18.604;2023-07-09T00:33:04;19.29;60.46
54540;SHT30;40438;52.992;18.604;2023-07-09T00:35:30;19.28;60.68
54540;SHT30;40438;52.992;18.604;2023-07-09T00:37:57;19.25;60.56
54540;SHT30;40438;52.992;18.604;2023-07-09T00:40:23;19.23;60.56
54540;SHT30;40438;52.992;18.604;2023-07-09T00:42:52;19.22;60.71
54540;SHT30;40438;52.992;18.604;2023-07-09T00:45:20;19.18;60.94
54540;SHT30;40438;52.992;18.604;2023-07-09T00:47:49;19.18;61.11
54540;SHT30;40438;52.992;18.604;2023-07-09T00:50:24;19.14;61.00
54540;SHT30;40438;52.992;18.604;2023-07-09T00:52:53;19.06;61.44
54540;SHT30;40438;52.992;18.604;2023-07-09T00:55:23;19.04;61.51
54540;SHT30;40438;52.992;18.604;2023-07-09T00:57:52;18.95;61.56
54540;SHT30;40438;52.992;18.604;2023-07-09T01:00:19;18.96;61.59
54540;SHT30;40438;52.992;18.604;2023-07-09T01:02:47;18.94;61.62
54540;SHT30;40438;52.992;18.604;2023-07-09T01:05:14;18.94;61.82
54540;SHT30;40438;52.992;18.604;2023-07-09T01:07:40;18.91;61.85
54540;SHT30;40438;52.992;18.604;2023-07-09T01:10:08;18.87;62.11
54540;SHT30;40438;52.992;18.604;2023-07-09T01:12:35;18.81;62.27
54540;SHT30;40438;52.992;18.604;2023-07-09T01:15:01;18.73;62.55
54540;SHT30;40438;52.992;18.604;2023-07-09T01:17:28;18.80;62.44
54540;SHT30;40438;52.992;18.604;2023-07-09T01:19:54;18.78;62.49
54540;SHT30;40438;52.992;18.604;2023-07-09T01:22:22;18.68;62.86
54540;SHT30;40438;52.992;18.604;2023-07-09T01:24:52;18.70;62.84
54540;SHT30;40438;52.992;18.604;2023-07-09T01:27:20;18.71;62.76
54540;SHT30;40438;52.992;18.604;2023-07-09T01:29:46;18.71;62.84
54540;SHT30;40438;52.992;18.604;2023-07-09T01:32:13;18.63;63.27
54540;SHT30;40438;52.992;18.604;2023-07-09T01:34:39;18.54;63.64
54540;SHT30;40438;52.992;18.604;2023-07-09T01:37:05;18.49;63.92
54540;SHT30;40438;52.992;18.604;2023-07-09T01:39:32;18.39;64.17
54540;SHT30;40438;52.992;18.604;2023-07-09T01:41:58;18.33;64.44
54540;SHT30;40438;52.992;18.604;2023-07-09T01:44:24;18.29;64.80
54540;SHT30;40438;52.992;18.604;2023-07-09T01:46:50;18.20;64.86
54540;SHT30;40438;52.992;18.604;2023-07-09T01:49:16;18.20;64.85
54540;SHT30;40438;52.992;18.604;2023-07-09T01:51:42;18.25;64.88
54540;SHT30;40438;52.992;18.604;2023-07-09T01:54:07;18.25;64.82
54540;SHT30;40438;52.992;18.604;2023-07-09T01:56:36;18.30;64.54
54540;SHT30;40438;52.992;18.604;2023-07-09T01:59:02;18.26;64.80
54540;SHT30;40438;52.992;18.604;2023-07-09T02:01:28;18.23;64.88
54540;SHT30;40438;52.992;18.604;2023-07-09T02:03:54;18.19;65.02
54540;SHT30;40438;52.992;18.604;2023-07-09T02:06:20;18.15;64.94
54540;SHT30;40438;52.992;18.604;2023-07-09T02:08:46;18.16;65.20
54540;SHT30;40438;52.992;18.604;2023-07-09T02:11:11;18.05;65.44
54540;SHT30;40438;52.992;18.604;2023-07-09T02:13:39;18.02;65.69
54540;SHT30;40438;52.992;18.604;2023-07-09T02:16:05;17.91;65.62
54540;SHT30;40438;52.992;18.604;2023-07-09T02:18:30;17.70;66.07
54540;SHT30;40438;52.992;18.604;2023-07-09T02:21:00;17.57;66.47
54540;SHT30;40438;52.992;18.604;2023-07-09T02:23:26;17.50;66.68
54540;SHT30;40438;52.992;18.604;2023-07-09T02:25:52;17.47;66.86
54540;SHT30;40438;52.992;18.604;2023-07-09T02:28:18;17.43;66.72
54540;SHT30;40438;52.992;18.604;2023-07-09T02:30:45;17.40;66.39
54540;SHT30;40438;52.992;18.604;2023-07-09T02:33:11;17.31;66.81
54540;SHT30;40438;52.992;18.604;2023-07-09T02:35:37;17.27;66.84
54540;SHT30;40438;52.992;18.604;2023-07-09T02:38:03;17.16;66.66
54540;SHT30;40438;52.992;18.604;2023-07-09T02:40:29;17.06;66.59
54540;SHT30;40438;52.992;18.604;2023-07-09T02:42:55;16.92;67.09
54540;SHT30;40438;52.992;18.604;2023-07-09T02:45:21;16.80;67.80
54540;SHT30;40438;52.992;18.604;2023-07-09T02:47:49;16.69;68.38
54540;SHT30;40438;52.992;18.604;2023-07-09T02:50:15;16.64;68.64
54540;SHT30;40438;52.992;18.604;2023-07-09T02:52:41;16.59;68.49
54540;SHT30;40438;52.992;18.604;2023-07-09T02:55:08;16.62;68.57
54540;SHT30;40438;52.992;18.604;2023-07-09T02:57:33;16.67;68.67
54540;SHT30;40438;52.992;18.604;2023-07-09T02:59:59;16.69;68.76
54540;SHT30;40438;52.992;18.604;2023-07-09T03:02:25;16.69;68.30
54540;SHT30;40438;52.992;18.604;2023-07-09T03:04:52;16.65;68.39
54540;SHT30;40438;52.992;18.604;2023-07-09T03:07:18;16.65;68.47
54540;SHT30;40438;52.992;18.604;2023-07-09T03:09:44;16.61;68.48
54540;SHT30;40438;52.992;18.604;2023-07-09T03:12:10;16.65;68.24
54540;SHT30;40438;52.992;18.604;2023-07-09T03:14:36;16.71;68.08
54540;SHT30;40438;52.992;18.604;2023-07-09T03:17:02;16.73;68.70
54540;SHT30;40438;52.992;18.604;2023-07-09T03:19:28;16.80;68.47
54540;SHT30;40438;52.992;18.604;2023-07-09T03:21:55;16.92;68.56
54540;SHT30;40438;52.992;18.604;2023-07-09T03:24:21;16.99;68.78
54540;SHT30;40438;52.992;18.604;2023-07-09T03:26:47;17.07;68.92
54540;SHT30;40438;52.992;18.604;2023-07-09T03:29:13;17.13;69.06
54540;SHT30;40438;52.992;18.604;2023-07-09T03:31:39;17.20;68.98
54540;SHT30;40438;52.992;18.604;2023-07-09T03:34:05;17.24;68.93
54540;SHT30;40438;52.992;18.604;2023-07-09T03:36:31;17.31;68.95
54540;SHT30;40438;52.992;18.604;2023-07-09T03:38:58;17.40;68.67
54540;SHT30;40438;52.992;18.604;2023-07-09T03:41:24;17.43;68.61
54540;SHT30;40438;52.992;18.604;2023-07-09T03:43:50;17.51;68.48
54540;SHT30;40438;52.992;18.604;2023-07-09T03:46:16;17.57;68.39
54540;SHT30;40438;52.992;18.604;2023-07-09T03:48:42;17.61;68.23
54540;SHT30;40438;52.992;18.604;2023-07-09T03:51:08;17.68;67.97
54540;SHT30;40438;52.992;18.604;2023-07-09T03:53:33;17.73;67.99
54540;SHT30;40438;52.992;18.604;2023-07-09T03:56:00;17.74;67.83
54540;SHT30;40438;52.992;18.604;2023-07-09T03:58:26;17.82;67.68
54540;SHT30;40438;52.992;18.604;2023-07-09T04:00:52;17.91;67.51
54540;SHT30;40438;52.992;18.604;2023-07-09T04:03:18;17.96;67.34
54540;SHT30;40438;52.992;18.604;2023-07-09T04:05:44;18.01;67.39
54540;SHT30;40438;52.992;18.604;2023-07-09T04:08:10;17.99;67.37
54540;SHT30;40438;52.992;18.604;2023-07-09T04:10:36;18.09;67.35
54540;SHT30;40438;52.992;18.604;2023-07-09T04:13:03;18.15;67.31
54540;SHT30;40438;52.992;18.604;2023-07-09T04:15:29;18.22;67.11
54540;SHT30;40438;52.992;18.604;2023-07-09T04:17:55;18.29;67.01
54540;SHT30;40438;52.992;18.604;2023-07-09T04:20:20;18.33;67.10
54540;SHT30;40438;52.992;18.604;2023-07-09T04:22:46;18.40;66.70
54540;SHT30;40438;52.992;18.604;2023-07-09T04:25:12;18.42;66.79
54540;SHT30;40438;52.992;18.604;2023-07-09T04:27:39;18.50;66.51
54540;SHT30;40438;52.992;18.604;2023-07-09T04:30:09;18.50;66.59
54540;SHT30;40438;52.992;18.604;2023-07-09T04:32:36;18.54;66.56
54540;SHT30;40438;52.992;18.604;2023-07-09T04:35:03;18.59;66.45
54540;SHT30;40438;52.992;18.604;2023-07-09T04:37:28;18.59;66.54
54540;SHT30;40438;52.992;18.604;2023-07-09T04:39:54;18.63;66.52
54540;SHT30;40438;52.992;18.604;2023-07-09T04:42:20;18.68;66.29
54540;SHT30;40438;52.992;18.604;2023-07-09T04:44:46;18.71;66.14
54540;SHT30;40438;52.992;18.604;2023-07-09T04:47:13;18.83;65.91
54540;SHT30;40438;52.992;18.604;2023-07-09T04:49:39;18.94;65.75
54540;SHT30;40438;52.992;18.604;2023-07-09T04:52:06;18.95;65.73
54540;SHT30;40438;52.992;18.604;2023-07-09T04:54:32;19.01;65.31
54540;SHT30;40438;52.992;18.604;2023-07-09T04:56:57;19.11;64.78
54540;SHT30;40438;52.992;18.604;2023-07-09T04:59:23;19.16;64.69
54540;SHT30;40438;52.992;18.604;2023-07-09T05:01:49;19.16;65.01
54540;SHT30;40438;52.992;18.604;2023-07-09T05:04:16;19.19;64.73
54540;SHT30;40438;52.992;18.604;2023-07-09T05:06:42;19.32;64.39
54540;SHT30;40438;52.992;18.604;2023-07-09T05:09:08;19.36;64.34
54540;SHT30;40438;52.992;18.604;2023-07-09T05:11:35;19.46;64.03
54540;SHT30;40438;52.992;18.604;2023-07-09T05:14:01;19.53;63.83
54540;SHT30;40438;52.992;18.604;2023-07-09T05:16:27;19.59;63.59
54540;SHT30;40438;52.992;18.604;2023-07-09T05:18:53;19.62;63.53
54540;SHT30;40438;52.992;18.604;2023-07-09T05:21:20;19.73;63.07
54540;SHT30;40438;52.992;18.604;2023-07-09T05:23:46;19.83;62.92
54540;SHT30;40438;52.992;18.604;2023-07-09T05:26:11;19.90;62.66
54540;SHT30;40438;52.992;18.604;2023-07-09T05:28:37;19.93;62.52
54540;SHT30;40438;52.992;18.604;2023-07-09T05:31:04;20.00;62.43
54540;SHT30;40438;52.992;18.604;2023-07-09T05:33:29;20.04;62.31
54540;SHT30;40438;52.992;18.604;2023-07-09T05:35:55;20.10;62.32
54540;SHT30;40438;52.992;18.604;2023-07-09T05:38:23;20.17;62.16
54540;SHT30;40438;52.992;18.604;2023-07-09T05:40:57;20.22;61.77
54540;SHT30;40438;52.992;18.604;2023-07-09T05:43:23;20.28;61.46
54540;SHT30;40438;52.992;18.604;2023-07-09T05:45:49;20.35;61.41
54540;SHT30;40438;52.992;18.604;2023-07-09T05:48:15;20.42;60.74
54540;SHT30;40438;52.992;18.604;2023-07-09T05:50:41;20.46;60.38
54540;SHT30;40438;52.992;18.604;2023-07-09T05:53:07;20.52;60.22
54540;SHT30;40438;52.992;18.604;2023-07-09T05:55:34;20.59;59.94
54540;SHT30;40438;52.992;18.604;2023-07-09T05:58:00;20.63;59.21
54540;SHT30;40438;52.992;18.604;2023-07-09T06:00:26;20.68;59.01
54540;SHT30;40438;52.992;18.604;2023-07-09T06:02:52;20.76;58.81
54540;SHT30;40438;52.992;18.604;2023-07-09T06:05:17;20.83;57.98
54540;SHT30;40438;52.992;18.604;2023-07-09T06:07:43;20.86;57.67
54540;SHT30;40438;52.992;18.604;2023-07-09T06:10:09;20.86;58.18
54540;SHT30;40438;52.992;18.604;2023-07-09T06:12:36;20.87;58.05
54540;SHT30;40438;52.992;18.604;2023-07-09T06:15:03;20.94;58.05
54540;SHT30;40438;52.992;18.604;2023-07-09T06:17:28;21.01;57.80
54540;SHT30;40438;52.992;18.604;2023-07-09T06:19:54;21.08;57.09
54540;SHT30;40438;52.992;18.604;2023-07-09T06:22:20;21.15;56.61
54540;SHT30;40438;52.992;18.604;2023-07-09T06:24:46;21.24;56.42
54540;SHT30;40438;52.992;18.604;2023-07-09T06:27:12;21.27;56.19
54540;SHT30;40438;52.992;18.604;2023-07-09T06:29:39;21.32;56.15
54540;SHT30;40438;52.992;18.604;2023-07-09T06:32:05;21.49;55.31
54540;SHT30;40438;52.992;18.604;2023-07-09T06:34:31;21.47;55.68
54540;SHT30;40438;52.992;18.604;2023-07-09T06:36:57;21.49;55.45
54540;SHT30;40438;52.992;18.604;2023-07-09T06:39:23;21.51;55.00
54540;SHT30;40438;52.992;18.604;2023-07-09T06:41:49;21.55;54.71
54540;SHT30;40438;52.992;18.604;2023-07-09T06:44:33;21.62;53.94
54540;SHT30;40438;52.992;18.604;2023-07-09T06:47:00;21.65;54.30
54540;SHT30;40438;52.992;18.604;2023-07-09T06:49:27;21.68;54.08
54540;SHT30;40438;52.992;18.604;2023-07-09T06:51:53;21.69;54.06
54540;SHT30;40438;52.992;18.604;2023-07-09T06:54:19;21.73;54.01
54540;SHT30;40438;52.992;18.604;2023-07-09T06:56:45;21.80;53.90
54540;SHT30;40438;52.992;18.604;2023-07-09T06:59:10;21.83;53.18
54540;SHT30;40438;52.992;18.604;2023-07-09T07:01:36;21.95;53.15
54540;SHT30;40438;52.992;18.604;2023-07-09T07:04:03;22.00;52.43
54540;SHT30;40438;52.992;18.604;2023-07-09T07:06:29;22.06;52.43
54540;SHT30;40438;52.992;18.604;2023-07-09T07:08:55;22.16;52.09
54540;SHT30;40438;52.992;18.604;2023-07-09T07:11:21;22.21;51.71
54540;SHT30;40438;52.992;18.604;2023-07-09T07:13:46;22.30;51.63
54540;SHT30;40438;52.992;18.604;2023-07-09T07:16:12;22.30;51.27
54540;SHT30;40438;52.992;18.604;2023-07-09T07:18:38;22.40;51.27
54540;SHT30;40438;52.992;18.604;2023-07-09T07:21:06;22.47;51.56
54540;SHT30;40438;52.992;18.604;2023-07-09T07:23:32;22.53;51.21
54540;SHT30;40438;52.992;18.604;2023-07-09T07:25:58;22.57;50.67
54540;SHT30;40438;52.992;18.604;2023-07-09T07:28:24;22.61;50.48
54540;SHT30;40438;52.992;18.604;2023-07-09T07:30:58;22.64;49.59
54540;SHT30;40438;52.992;18.604;2023-07-09T07:33:24;22.69;49.95
54540;SHT30;40438;52.992;18.604;2023-07-09T07:35:50;22.78;50.04
54540;SHT30;40438;52.992;18.604;2023-07-09T07:38:17;22.82;49.77
54540;SHT30;40438;52.992;18.604;2023-07-09T07:40:44;22.91;49.43
54540;SHT30;40438;52.992;18.604;2023-07-09T07:43:09;22.95;48.81
54540;SHT30;40438;52.992;18.604;2023-07-09T07:45:35;22.98;48.99
54540;SHT30;40438;52.992;18.604;2023-07-09T07:48:01;23.03;48.98
54540;SHT30;40438;52.992;18.604;2023-07-09T07:50:27;23.14;48.76
54540;SHT30;40438;52.992;18.604;2023-07-09T07:52:52;23.19;48.29
54540;SHT30;40438;52.992;18.604;2023-07-09T07:55:20;23.26;47.59
54540;SHT30;40438;52.992;18.604;2023-07-09T07:57:45;23.35;47.04
54540;SHT30;40438;52.992;18.604;2023-07-09T08:00:12;23.39;46.93
54540;SHT30;40438;52.992;18.604;2023-07-09T08:02:38;23.43;46.97
54540;SHT30;40438;52.992;18.604;2023-07-09T08:05:04;23.51;46.79
54540;SHT30;40438;52.992;18.604;2023-07-09T08:07:30;23.54;46.75
54540;SHT30;40438;52.992;18.604;2023-07-09T08:09:56;23.57;46.42
54540;SHT30;40438;52.992;18.604;2023-07-09T08:12:23;23.66;46.10
54540;SHT30;40438;52.992;18.604;2023-07-09T08:14:49;23.71;45.83
54540;SHT30;40438;52.992;18.604;2023-07-09T08:17:15;23.76;45.28
54540;SHT30;40438;52.992;18.604;2023-07-09T08:19:44;23.81;45.42
54540;SHT30;40438;52.992;18.604;2023-07-09T08:22:10;23.90;45.58
54540;SHT30;40438;52.992;18.604;2023-07-09T08:24:36;23.95;44.72
54540;SHT30;40438;52.992;18.604;2023-07-09T08:27:03;24.01;44.78
54540;SHT30;40438;52.992;18.604;2023-07-09T08:29:30;24.05;44.79
54540;SHT30;40438;52.992;18.604;2023-07-09T08:31:56;24.08;44.94
54540;SHT30;40438;52.992;18.604;2023-07-09T08:34:21;24.21;45.26
54540;SHT30;40438;52.992;18.604;2023-07-09T08:36:47;24.26;45.29
54540;SHT30;40438;52.992;18.604;2023-07-09T08:39:13;24.36;44.87
54540;SHT30;40438;52.992;18.604;2023-07-09T08:41:42;24.42;45.26
54540;SHT30;40438;52.992;18.604;2023-07-09T08:47:16;24.67;44.77
54540;SHT30;40438;52.992;18.604;2023-07-09T08:49:48;24.72;44.85
54540;SHT30;40438;52.992;18.604;2023-07-09T08:52:24;24.79;44.55
54540;SHT30;40438;52.992;18.604;2023-07-09T08:54:52;24.88;44.19
54540;SHT30;40438;52.992;18.604;2023-07-09T08:57:24;24.94;42.08
54540;SHT30;40438;52.992;18.604;2023-07-09T08:59:54;25.01;42.81
54540;SHT30;40438;52.992;18.604;2023-07-09T09:02:30;25.01;41.89
54540;SHT30;40438;52.992;18.604;2023-07-09T09:04:58;25.03;42.05
54540;SHT30;40438;52.992;18.604;2023-07-09T09:07:32;25.06;41.59
54540;SHT30;40438;52.992;18.604;2023-07-09T09:10:01;25.07;41.03
54540;SHT30;40438;52.992;18.604;2023-07-09T09:12:30;25.15;41.07
54540;SHT30;40438;52.992;18.604;2023-07-09T09:15:01;25.22;40.89
54540;SHT30;40438;52.992;18.604;2023-07-09T09:17:33;25.28;40.84
54540;SHT30;40438;52.992;18.604;2023-07-09T09:20:01;25.31;39.99
54540;SHT30;40438;52.992;18.604;2023-07-09T09:22:30;25.39;39.91
54540;SHT30;40438;52.992;18.604;2023-07-09T09:25:03;25.46;40.23
54540;SHT30;40438;52.992;18.604;2023-07-09T09:27:30;25.49;39.72
54540;SHT30;40438;52.992;18.604;2023-07-09T09:29:56;25.54;39.61
54540;SHT30;40438;52.992;18.604;2023-07-09T09:32:26;25.62;38.63
54540;SHT30;40438;52.992;18.604;2023-07-09T09:34:53;25.73;39.37
54540;SHT30;40438;52.992;18.604;2023-07-09T09:37:26;25.92;38.93
54540;SHT30;40438;52.992;18.604;2023-07-09T09:39:52;26.00;38.86
54540;SHT30;40438;52.992;18.604;2023-07-09T09:42:18;26.13;38.72
54540;SHT30;40438;52.992;18.604;2023-07-09T09:44:45;26.27;38.77
54540;SHT30;40438;52.992;18.604;2023-07-09T09:47:11;26.33;38.47
54540;SHT30;40438;52.992;18.604;2023-07-09T09:49:40;26.34;37.26
54540;SHT30;40438;52.992;18.604;2023-07-09T09:52:11;26.40;37.75
54540;SHT30;40438;52.992;18.604;2023-07-09T09:54:41;26.50;38.54
54540;SHT30;40438;52.992;18.604;2023-07-09T09:57:15;26.58;38.37
54540;SHT30;40438;52.992;18.604;2023-07-09T09:59:42;26.60;38.11
54540;SHT30;40438;52.992;18.604;2023-07-09T10:02:15;26.65;37.82
54540;SHT30;40438;52.992;18.604;2023-07-09T10:04:42;26.69;37.08
54540;SHT30;40438;52.992;18.604;2023-07-09T10:07:18;26.79;36.57
54540;SHT30;40438;52.992;18.604;2023-07-09T10:09:48;26.94;36.52
54540;SHT30;40438;52.992;18.604;2023-07-09T10:12:23;27.03;36.72
54540;SHT30;40438;52.992;18.604;2023-07-09T10:14:58;27.03;36.96
54540;SHT30;40438;52.992;18.604;2023-07-09T10:17:32;27.06;36.53
54540;SHT30;40438;52.992;18.604;2023-07-09T10:20:06;27.15;36.26
54540;SHT30;40438;52.992;18.604;2023-07-09T10:22:40;27.20;35.73
54540;SHT30;40438;52.992;18.604;2023-07-09T10:25:16;27.23;35.82
54540;SHT30;40438;52.992;18.604;2023-07-09T10:27:58;27.33;35.99
54540;SHT30;40438;52.992;18.604;2023-07-09T10:30:41;27.42;36.02
54540;SHT30;40438;52.992;18.604;2023-07-09T10:33:10;27.47;35.13
54540;SHT30;40438;52.992;18.604;2023-07-09T10:35:45;27.57;34.59
54540;SHT30;40438;52.992;18.604;2023-07-09T10:38:34;27.58;35.21
54540;SHT30;40438;52.992;18.604;2023-07-09T10:41:02;27.60;35.24
54540;SHT30;40438;52.992;18.604;2023-07-09T10:43:38;27.68;34.68
54540;SHT30;40438;52.992;18.604;2023-07-09T10:46:11;27.80;35.15
54540;SHT30;40438;52.992;18.604;2023-07-09T10:48:41;27.81;35.26
54540;SHT30;40438;52.992;18.604;2023-07-09T10:51:13;27.84;34.30
54540;SHT30;40438;52.992;18.604;2023-07-09T10:53:44;28.09;33.20
54540;SHT30;40438;52.992;18.604;2023-07-09T10:56:12;28.18;33.51
54540;SHT30;40438;52.992;18.604;2023-07-09T10:58:46;28.16;34.28
54540;SHT30;40438;52.992;18.604;2023-07-09T11:01:15;28.12;33.95
54540;SHT30;40438;52.992;18.604;2023-07-09T11:03:44;28.18;34.12
54540;SHT30;40438;52.992;18.604;2023-07-09T11:06:16;28.18;33.75
54540;SHT30;40438;52.992;18.604;2023-07-09T11:08:47;28.36;33.61
54540;SHT30;40438;52.992;18.604;2023-07-09T11:11:24;28.42;33.56
54540;SHT30;40438;52.992;18.604;2023-07-09T11:13:53;28.45;33.12
54540;SHT30;40438;52.992;18.604;2023-07-09T11:16:26;28.42;33.09
54540;SHT30;40438;52.992;18.604;2023-07-09T11:18:55;28.56;32.72
54540;SHT30;40438;52.992;18.604;2023-07-09T11:21:21;28.66;32.82
54540;SHT30;40438;52.992;18.604;2023-07-09T11:23:50;28.90;31.89
54540;SHT30;40438;52.992;18.604;2023-07-09T11:26:22;29.14;32.62
54540;SHT30;40438;52.992;18.604;2023-07-09T11:28:52;29.38;31.69
54540;SHT30;40438;52.992;18.604;2023-07-09T11:31:22;29.62;30.91
54540;SHT30;40438;52.992;18.604;2023-07-09T11:33:49;29.77;30.21
54540;SHT30;40438;52.992;18.604;2023-07-09T11:36:26;29.99;30.92
54540;SHT30;40438;52.992;18.604;2023-07-09T11:38:54;30.25;31.06
54540;SHT30;40438;52.992;18.604;2023-07-09T11:41:34;30.60;30.75
54540;SHT30;40438;52.992;18.604;2023-07-09T11:44:09;30.89;29.96
54540;SHT30;40438;52.992;18.604;2023-07-09T11:46:40;31.16;29.88
54540;SHT30;40438;52.992;18.604;2023-07-09T11:49:10;31.37;29.43
54540;SHT30;40438;52.992;18.604;2023-07-09T11:51:40;31.61;28.93
54540;SHT30;40438;52.992;18.604;2023-07-09T11:54:11;31.70;28.69
54540;SHT30;40438;52.992;18.604;2023-07-09T11:56:37;31.78;28.42
54540;SHT30;40438;52.992;18.604;2023-07-09T11:59:03;31.97;28.47
54540;SHT30;40438;52.992;18.604;2023-07-09T12:01:35;32.14;28.57
54540;SHT30;40438;52.992;18.604;2023-07-09T12:04:03;32.22;28.74
54540;SHT30;40438;52.992;18.604;2023-07-09T12:06:30;32.38;28.64
54540;SHT30;40438;52.992;18.604;2023-07-09T12:08:57;32.60;27.12
54540;SHT30;40438;52.992;18.604;2023-07-09T12:11:26;32.62;27.19
54540;SHT30;40438;52.992;18.604;2023-07-09T12:13:52;32.72;27.85
54540;SHT30;40438;52.992;18.604;2023-07-09T12:16:23;32.75;28.06
54540;SHT30;40438;52.992;18.604;2023-07-09T12:18:49;32.70;28.16
54540;SHT30;40438;52.992;18.604;2023-07-09T12:21:15;32.80;28.22
54540;SHT30;40438;52.992;18.604;2023-07-09T12:23:41;32.73;28.26
54540;SHT30;40438;52.992;18.604;2023-07-09T12:26:11;32.67;28.58
54540;SHT30;40438;52.992;18.604;2023-07-09T12:28:40;32.53;28.23
54540;SHT30;40438;52.992;18.604;2023-07-09T12:31:13;32.35;28.28
54540;SHT30;40438;52.992;18.604;2023-07-09T12:33:46;32.12;28.60
54540;SHT30;40438;52.992;18.604;2023-07-09T12:36:12;32.09;28.14
54540;SHT30;40438;52.992;18.604;2023-07-09T12:38:42;31.95;28.36
54540;SHT30;40438;52.992;18.604;2023-07-09T12:41:17;31.99;28.68
54540;SHT30;40438;52.992;18.604;2023-07-09T12:43:45;32.01;28.80
54540;SHT30;40438;52.992;18.604;2023-07-09T12:46:11;32.07;28.94
54540;SHT30;40438;52.992;18.604;2023-07-09T12:48:38;32.11;29.06
54540;SHT30;40438;52.992;18.604;2023-07-09T12:51:07;32.12;28.74
54540;SHT30;40438;52.992;18.604;2023-07-09T12:53:33;32.04;28.88
54540;SHT30;40438;52.992;18.604;2023-07-09T12:56:00;32.09;28.79
54540;SHT30;40438;52.992;18.604;2023-07-09T12:58:28;32.14;28.82
54540;SHT30;40438;52.992;18.604;2023-07-09T13:00:56;32.18;29.00
54540;SHT30;40438;52.992;18.604;2023-07-09T13:03:26;32.21;28.77
54540;SHT30;40438;52.992;18.604;2023-07-09T13:05:58;32.29;28.58
54540;SHT30;40438;52.992;18.604;2023-07-09T13:08:24;32.31;28.93
54540;SHT30;40438;52.992;18.604;2023-07-09T13:10:50;32.38;29.31
54540;SHT30;40438;52.992;18.604;2023-07-09T13:13:17;32.43;28.78
54540;SHT30;40438;52.992;18.604;2023-07-09T13:15:47;32.59;28.70
54540;SHT30;40438;52.992;18.604;2023-07-09T13:18:14;32.39;30.52
54540;SHT30;40438;52.992;18.604;2023-07-09T13:20:42;32.46;28.79
54540;SHT30;40438;52.992;18.604;2023-07-09T13:23:09;32.56;28.11
54540;SHT30;40438;52.992;18.604;2023-07-09T13:25:36;32.67;28.70
54540;SHT30;40438;52.992;18.604;2023-07-09T13:28:02;32.69;28.44
54540;SHT30;40438;52.992;18.604;2023-07-09T13:30:27;32.80;28.22
54540;SHT30;40438;52.992;18.604;2023-07-09T13:32:53;32.70;28.08
54540;SHT30;40438;52.992;18.604;2023-07-09T13:35:20;32.60;28.99
54540;SHT30;40438;52.992;18.604;2023-07-09T13:37:46;32.15;31.05
54540;SHT30;40438;52.992;18.604;2023-07-09T13:40:13;31.85;30.77
54540;SHT30;40438;52.992;18.604;2023-07-09T13:42:39;31.84;29.80
54540;SHT30;40438;52.992;18.604;2023-07-09T13:45:15;31.92;29.85
54540;SHT30;40438;52.992;18.604;2023-07-09T13:47:41;32.12;29.09
54540;SHT30;40438;52.992;18.604;2023-07-09T13:50:07;32.21;29.03
54540;SHT30;40438;52.992;18.604;2023-07-09T13:52:35;32.39;28.87
54540;SHT30;40438;52.992;18.604;2023-07-09T13:55:01;32.51;28.86
54540;SHT30;40438;52.992;18.604;2023-07-09T13:57:27;32.76;28.79
54540;SHT30;40438;52.992;18.604;2023-07-09T13:59:53;33.00;28.22
54540;SHT30;40438;52.992;18.604;2023-07-09T14:02:25;33.15;27.90
54540;SHT30;40438;52.992;18.604;2023-07-09T14:04:51;33.45;27.76
54540;SHT30;40438;52.992;18.604;2023-07-09T14:07:26;33.52;27.59
54540;SHT30;40438;52.992;18.604;2023-07-09T14:09:53;33.51;26.94
54540;SHT30;40438;52.992;18.604;2023-07-09T14:12:19;33.52;26.88
54540;SHT30;40438;52.992;18.604;2023-07-09T14:14:46;33.61;26.71
54540;SHT30;40438;52.992;18.604;2023-07-09T14:17:13;33.52;26.57
54540;SHT30;40438;52.992;18.604;2023-07-09T14:19:38;33.58;26.51
54540;SHT30;40438;52.992;18.604;2023-07-09T14:22:20;33.52;26.22
54540;SHT30;40438;52.992;18.604;2023-07-09T14:24:46;33.75;25.95
54540;SHT30;40438;52.992;18.604;2023-07-09T14:27:14;33.82;25.73
54540;SHT30;40438;52.992;18.604;2023-07-09T14:29:39;33.89;25.54
54540;SHT30;40438;52.992;18.604;2023-07-09T14:32:28;33.96;25.73
54540;SHT30;40438;52.992;18.604;2023-07-09T14:34:56;34.15;25.66
54540;SHT30;40438;52.992;18.604;2023-07-09T14:37:21;34.08;25.48
54540;SHT30;40438;52.992;18.604;2023-07-09T14:39:47;33.96;25.69
54540;SHT30;40438;52.992;18.604;2023-07-09T14:42:14;34.03;25.90
54540;SHT30;40438;52.992;18.604;2023-07-09T14:44:40;34.24;25.71
54540;SHT30;40438;52.992;18.604;2023-07-09T14:47:21;34.23;25.65
54540;SHT30;40438;52.992;18.604;2023-07-09T14:49:47;34.00;25.41
54540;SHT30;40438;52.992;18.604;2023-07-09T14:52:15;33.79;25.79
54540;SHT30;40438;52.992;18.604;2023-07-09T14:54:42;33.50;25.74
54540;SHT30;40438;52.992;18.604;2023-07-09T14:57:19;33.06;26.14
54540;SHT30;40438;52.992;18.604;2023-07-09T14:59:45;33.18;26.11
54540;SHT30;40438;52.992;18.604;2023-07-09T15:02:21;33.24;26.09
54540;SHT30;40438;52.992;18.604;2023-07-09T15:04:47;33.33;26.25
54540;SHT30;40438;52.992;18.604;2023-07-09T15:07:13;33.31;25.96
54540;SHT30;40438;52.992;18.604;2023-07-09T15:09:39;33.38;26.03
54540;SHT30;40438;52.992;18.604;2023-07-09T15:12:08;33.33;26.18
54540;SHT30;40438;52.992;18.604;2023-07-09T15:14:40;33.45;25.93
54540;SHT30;40438;52.992;18.604;2023-07-09T15:17:07;33.54;25.82
54540;SHT30;40438;52.992;18.604;2023-07-09T15:19:33;33.68;25.55
54540;SHT30;40438;52.992;18.604;2023-07-09T15:21:59;33.79;25.54